sensor_id;sensor_type;location;lat;lon;timestamp;P1;durP1;ratioP1;P2;durP2;ratioP2
72601;SDS011;60644;55.858;37.390;2022-08-18T00:00:25;17.00;;;7.10;;
72601;SDS011;60644;55.858;37.390;2022-08-18T00:02:51;19.63;;;8.00;;
72601;SDS011;60644;55.858;37.390;2022-08-18T00:05:17;15.35;;;6.30;;
72601;SDS011;60644;55.858;37.390;2022-08-18T00:07:42;15.03;;;7.73;;
72601;SDS011;60644;55.858;37.390;2022-08-18T00:10:08;17.83;;;6.07;;
72601;SDS011;60644;55.858;37.390;2022-08-18T00:12:36;16.17;;;6.97;;
72601;SDS011;60644;55.858;37.390;2022-08-18T00:15:03;14.50;;;6.50;;
72601;SDS011;60644;55.858;37.390;2022-08-18T00:17:31;13.80;;;6.57;;
72601;SDS011;60644;55.858;37.390;2022-08-18T00:19:57;12.73;;;6.05;;
72601;SDS011;60644;55.858;37.390;2022-08-18T00:22:23;13.63;;;6.60;;
72601;SDS011;60644;55.858;37.390;2022-08-18T00:24:50;13.20;;;6.13;;
72601;SDS011;60644;55.858;37.390;2022-08-18T00:27:17;12.63;;;6.63;;
72601;SDS011;60644;55.858;37.390;2022-08-18T00:29:46;16.13;;;6.57;;
72601;SDS011;60644;55.858;37.390;2022-08-18T00:32:16;14.38;;;7.30;;
72601;SDS011;60644;55.858;37.390;2022-08-18T00:34:42;14.30;;;6.27;;
72601;SDS011;60644;55.858;37.390;2022-08-18T00:37:08;11.98;;;6.65;;
72601;SDS011;60644;55.858;37.390;2022-08-18T00:39:34;18.08;;;7.25;;
72601;SDS011;60644;55.858;37.390;2022-08-18T00:42:18;11.87;;;6.50;;
72601;SDS011;60644;55.858;37.390;2022-08-18T00:44:44;15.32;;;7.00;;
72601;SDS011;60644;55.858;37.390;2022-08-18T00:47:10;14.57;;;6.70;;
72601;SDS011;60644;55.858;37.390;2022-08-18T00:49:36;16.67;;;6.85;;
72601;SDS011;60644;55.858;37.390;2022-08-18T00:52:02;12.30;;;6.60;;
72601;SDS011;60644;55.858;37.390;2022-08-18T00:54:29;12.43;;;7.10;;
72601;SDS011;60644;55.858;37.390;2022-08-18T00:56:58;16.75;;;6.70;;
72601;SDS011;60644;55.858;37.390;2022-08-18T01:01:51;15.37;;;7.10;;
72601;SDS011;60644;55.858;37.390;2022-08-18T01:04:19;13.73;;;6.85;;
72601;SDS011;60644;55.858;37.390;2022-08-18T01:06:51;13.10;;;6.80;;
72601;SDS011;60644;55.858;37.390;2022-08-18T01:09:18;15.40;;;6.13;;
72601;SDS011;60644;55.858;37.390;2022-08-18T01:11:44;12.60;;;6.28;;
72601;SDS011;60644;55.858;37.390;2022-08-18T01:14:09;13.00;;;6.77;;
72601;SDS011;60644;55.858;37.390;2022-08-18T01:16:40;15.98;;;6.50;;
72601;SDS011;60644;55.858;37.390;2022-08-18T01:19:26;13.13;;;5.97;;
72601;SDS011;60644;55.858;37.390;2022-08-18T01:22:17;14.93;;;6.60;;
72601;SDS011;60644;55.858;37.390;2022-08-18T01:24:43;15.80;;;6.90;;
72601;SDS011;60644;55.858;37.390;2022-08-18T01:27:28;11.23;;;6.22;;
72601;SDS011;60644;55.858;37.390;2022-08-18T01:29:56;12.23;;;6.15;;
72601;SDS011;60644;55.858;37.390;2022-08-18T01:32:27;12.20;;;6.40;;
72601;SDS011;60644;55.858;37.390;2022-08-18T01:34:53;11.07;;;6.13;;
72601;SDS011;60644;55.858;37.390;2022-08-18T01:37:20;10.85;;;6.18;;
72601;SDS011;60644;55.858;37.390;2022-08-18T01:39:46;13.27;;;6.33;;
72601;SDS011;60644;55.858;37.390;2022-08-18T01:42:13;12.77;;;6.38;;
72601;SDS011;60644;55.858;37.390;2022-08-18T01:44:39;12.10;;;6.05;;
72601;SDS011;60644;55.858;37.390;2022-08-18T01:47:10;11.57;;;5.97;;
72601;SDS011;60644;55.858;37.390;2022-08-18T01:49:36;13.93;;;6.38;;
72601;SDS011;60644;55.858;37.390;2022-08-18T01:52:04;12.80;;;6.13;;
72601;SDS011;60644;55.858;37.390;2022-08-18T01:54:31;13.15;;;6.03;;
72601;SDS011;60644;55.858;37.390;2022-08-18T01:56:57;10.85;;;5.75;;
72601;SDS011;60644;55.858;37.390;2022-08-18T01:59:23;14.60;;;5.80;;
72601;SDS011;60644;55.858;37.390;2022-08-18T02:01:52;11.32;;;5.55;;
72601;SDS011;60644;55.858;37.390;2022-08-18T02:04:24;13.00;;;6.20;;
72601;SDS011;60644;55.858;37.390;2022-08-18T02:06:51;11.15;;;6.30;;
72601;SDS011;60644;55.858;37.390;2022-08-18T02:09:17;11.73;;;6.70;;
72601;SDS011;60644;55.858;37.390;2022-08-18T02:11:43;12.40;;;6.20;;
72601;SDS011;60644;55.858;37.390;2022-08-18T02:14:08;13.03;;;6.27;;
72601;SDS011;60644;55.858;37.390;2022-08-18T02:16:34;13.87;;;6.37;;
72601;SDS011;60644;55.858;37.390;2022-08-18T02:19:19;12.38;;;5.93;;
72601;SDS011;60644;55.858;37.390;2022-08-18T02:21:45;13.23;;;6.72;;
72601;SDS011;60644;55.858;37.390;2022-08-18T02:24:10;11.60;;;6.33;;
72601;SDS011;60644;55.858;37.390;2022-08-18T02:26:37;12.33;;;6.43;;
72601;SDS011;60644;55.858;37.390;2022-08-18T02:29:02;14.80;;;7.07;;
72601;SDS011;60644;55.858;37.390;2022-08-18T02:31:28;11.10;;;6.65;;
72601;SDS011;60644;55.858;37.390;2022-08-18T02:33:54;13.37;;;7.17;;
72601;SDS011;60644;55.858;37.390;2022-08-18T02:36:20;12.20;;;7.20;;
72601;SDS011;60644;55.858;37.390;2022-08-18T02:38:45;12.13;;;7.57;;
72601;SDS011;60644;55.858;37.390;2022-08-18T02:41:11;13.68;;;7.05;;
72601;SDS011;60644;55.858;37.390;2022-08-18T02:43:37;14.97;;;7.03;;
72601;SDS011;60644;55.858;37.390;2022-08-18T02:46:04;13.23;;;7.88;;
72601;SDS011;60644;55.858;37.390;2022-08-18T02:48:30;13.70;;;7.05;;
72601;SDS011;60644;55.858;37.390;2022-08-18T02:50:59;12.90;;;6.30;;
72601;SDS011;60644;55.858;37.390;2022-08-18T02:53:25;12.65;;;7.40;;
72601;SDS011;60644;55.858;37.390;2022-08-18T02:55:53;13.23;;;6.97;;
72601;SDS011;60644;55.858;37.390;2022-08-18T02:58:19;12.07;;;6.65;;
72601;SDS011;60644;55.858;37.390;2022-08-18T03:00:44;14.25;;;8.10;;
72601;SDS011;60644;55.858;37.390;2022-08-18T03:03:10;13.80;;;7.30;;
72601;SDS011;60644;55.858;37.390;2022-08-18T03:05:38;13.85;;;7.20;;
72601;SDS011;60644;55.858;37.390;2022-08-18T03:08:03;14.80;;;6.80;;
72601;SDS011;60644;55.858;37.390;2022-08-18T03:10:29;13.70;;;7.22;;
72601;SDS011;60644;55.858;37.390;2022-08-18T03:12:55;11.13;;;7.20;;
72601;SDS011;60644;55.858;37.390;2022-08-18T03:15:21;14.87;;;7.80;;
72601;SDS011;60644;55.858;37.390;2022-08-18T03:17:46;12.82;;;7.68;;
72601;SDS011;60644;55.858;37.390;2022-08-18T03:20:12;16.97;;;7.30;;
72601;SDS011;60644;55.858;37.390;2022-08-18T03:22:38;12.27;;;7.22;;
72601;SDS011;60644;55.858;37.390;2022-08-18T03:25:03;13.57;;;7.70;;
72601;SDS011;60644;55.858;37.390;2022-08-18T03:27:29;18.58;;;8.95;;
72601;SDS011;60644;55.858;37.390;2022-08-18T03:29:55;17.73;;;9.07;;
72601;SDS011;60644;55.858;37.390;2022-08-18T03:32:21;17.48;;;9.30;;
72601;SDS011;60644;55.858;37.390;2022-08-18T03:34:46;18.52;;;9.35;;
72601;SDS011;60644;55.858;37.390;2022-08-18T03:37:12;18.53;;;9.10;;
72601;SDS011;60644;55.858;37.390;2022-08-18T03:39:40;18.45;;;12.07;;
72601;SDS011;60644;55.858;37.390;2022-08-18T03:42:06;15.47;;;10.10;;
72601;SDS011;60644;55.858;37.390;2022-08-18T03:44:33;17.95;;;10.65;;
72601;SDS011;60644;55.858;37.390;2022-08-18T03:47:00;16.38;;;11.00;;
72601;SDS011;60644;55.858;37.390;2022-08-18T03:49:28;16.40;;;11.17;;
72601;SDS011;60644;55.858;37.390;2022-08-18T03:51:53;19.45;;;12.10;;
72601;SDS011;60644;55.858;37.390;2022-08-18T03:54:19;22.80;;;13.23;;
72601;SDS011;60644;55.858;37.390;2022-08-18T03:56:45;22.98;;;14.48;;
72601;SDS011;60644;55.858;37.390;2022-08-18T03:59:15;21.38;;;14.93;;
72601;SDS011;60644;55.858;37.390;2022-08-18T04:01:42;26.57;;;17.83;;
72601;SDS011;60644;55.858;37.390;2022-08-18T04:04:10;27.58;;;17.05;;
72601;SDS011;60644;55.858;37.390;2022-08-18T04:06:38;27.27;;;19.90;;
72601;SDS011;60644;55.858;37.390;2022-08-18T04:09:05;30.88;;;19.77;;
72601;SDS011;60644;55.858;37.390;2022-08-18T04:11:32;35.08;;;23.70;;
72601;SDS011;60644;55.858;37.390;2022-08-18T04:13:57;34.50;;;23.77;;
72601;SDS011;60644;55.858;37.390;2022-08-18T04:16:24;37.50;;;24.67;;
72601;SDS011;60644;55.858;37.390;2022-08-18T04:18:49;31.38;;;21.42;;
72601;SDS011;60644;55.858;37.390;2022-08-18T04:21:15;34.33;;;22.47;;
72601;SDS011;60644;55.858;37.390;2022-08-18T04:23:41;34.70;;;23.77;;
72601;SDS011;60644;55.858;37.390;2022-08-18T04:26:07;32.00;;;23.70;;
72601;SDS011;60644;55.858;37.390;2022-08-18T04:28:33;31.52;;;22.60;;
72601;SDS011;60644;55.858;37.390;2022-08-18T04:31:04;29.73;;;20.90;;
72601;SDS011;60644;55.858;37.390;2022-08-18T04:33:29;34.50;;;22.45;;
72601;SDS011;60644;55.858;37.390;2022-08-18T04:35:55;33.00;;;22.63;;
72601;SDS011;60644;55.858;37.390;2022-08-18T04:38:21;31.67;;;21.43;;
72601;SDS011;60644;55.858;37.390;2022-08-18T04:40:47;33.33;;;23.42;;
72601;SDS011;60644;55.858;37.390;2022-08-18T04:43:13;32.90;;;22.23;;
72601;SDS011;60644;55.858;37.390;2022-08-18T04:45:46;34.17;;;22.77;;
72601;SDS011;60644;55.858;37.390;2022-08-18T04:48:12;32.13;;;23.40;;
72601;SDS011;60644;55.858;37.390;2022-08-18T04:50:37;32.42;;;22.17;;
72601;SDS011;60644;55.858;37.390;2022-08-18T04:53:03;33.72;;;22.20;;
72601;SDS011;60644;55.858;37.390;2022-08-18T04:55:48;53.03;;;36.40;;
72601;SDS011;60644;55.858;37.390;2022-08-18T04:58:16;44.03;;;30.93;;
72601;SDS011;60644;55.858;37.390;2022-08-18T05:00:43;47.75;;;33.17;;
72601;SDS011;60644;55.858;37.390;2022-08-18T05:03:09;47.95;;;34.22;;
72601;SDS011;60644;55.858;37.390;2022-08-18T05:05:35;49.75;;;35.80;;
72601;SDS011;60644;55.858;37.390;2022-08-18T05:08:01;58.10;;;43.37;;
72601;SDS011;60644;55.858;37.390;2022-08-18T05:10:26;74.60;;;50.97;;
72601;SDS011;60644;55.858;37.390;2022-08-18T05:12:52;73.00;;;54.25;;
72601;SDS011;60644;55.858;37.390;2022-08-18T05:15:18;86.33;;;64.67;;
72601;SDS011;60644;55.858;37.390;2022-08-18T05:17:45;106.97;;;78.13;;
72601;SDS011;60644;55.858;37.390;2022-08-18T05:20:10;138.53;;;106.30;;
72601;SDS011;60644;55.858;37.390;2022-08-18T05:22:40;132.32;;;100.85;;
72601;SDS011;60644;55.858;37.390;2022-08-18T05:25:07;152.80;;;112.90;;
72601;SDS011;60644;55.858;37.390;2022-08-18T05:27:34;147.17;;;108.83;;
72601;SDS011;60644;55.858;37.390;2022-08-18T05:30:00;157.30;;;117.10;;
72601;SDS011;60644;55.858;37.390;2022-08-18T05:32:27;156.88;;;117.38;;
72601;SDS011;60644;55.858;37.390;2022-08-18T05:34:55;159.77;;;118.22;;
72601;SDS011;60644;55.858;37.390;2022-08-18T05:37:27;165.20;;;120.47;;
72601;SDS011;60644;55.858;37.390;2022-08-18T05:39:57;156.10;;;116.33;;
72601;SDS011;60644;55.858;37.390;2022-08-18T05:42:25;158.98;;;115.15;;
72601;SDS011;60644;55.858;37.390;2022-08-18T05:44:53;156.75;;;118.18;;
72601;SDS011;60644;55.858;37.390;2022-08-18T05:47:26;155.80;;;117.05;;
72601;SDS011;60644;55.858;37.390;2022-08-18T05:49:54;152.50;;;113.88;;
72601;SDS011;60644;55.858;37.390;2022-08-18T05:52:21;147.67;;;111.60;;
72601;SDS011;60644;55.858;37.390;2022-08-18T05:54:51;145.23;;;107.45;;
72601;SDS011;60644;55.858;37.390;2022-08-18T05:57:41;129.23;;;97.53;;
72601;SDS011;60644;55.858;37.390;2022-08-18T06:00:07;125.65;;;93.07;;
72601;SDS011;60644;55.858;37.390;2022-08-18T06:02:55;123.28;;;89.80;;
72601;SDS011;60644;55.858;37.390;2022-08-18T06:07:54;123.50;;;89.57;;
72601;SDS011;60644;55.858;37.390;2022-08-18T06:10:21;127.50;;;93.97;;
72601;SDS011;60644;55.858;37.390;2022-08-18T06:12:48;124.57;;;88.70;;
72601;SDS011;60644;55.858;37.390;2022-08-18T06:26:16;122.55;;;90.82;;
72601;SDS011;60644;55.858;37.390;2022-08-18T06:28:57;123.97;;;92.55;;
72601;SDS011;60644;55.858;37.390;2022-08-18T06:32:11;124.20;;;90.00;;
72601;SDS011;60644;55.858;37.390;2022-08-18T06:34:23;120.55;;;87.43;;
72601;SDS011;60644;55.858;37.390;2022-08-18T06:37:00;118.70;;;88.78;;
72601;SDS011;60644;55.858;37.390;2022-08-18T06:39:34;117.97;;;88.93;;
72601;SDS011;60644;55.858;37.390;2022-08-18T06:42:03;125.80;;;92.95;;
72601;SDS011;60644;55.858;37.390;2022-08-18T06:47:19;119.78;;;89.05;;
72601;SDS011;60644;55.858;37.390;2022-08-18T06:49:58;126.65;;;89.75;;
72601;SDS011;60644;55.858;37.390;2022-08-18T06:52:31;111.03;;;85.38;;
72601;SDS011;60644;55.858;37.390;2022-08-18T06:55:32;111.28;;;84.50;;
72601;SDS011;60644;55.858;37.390;2022-08-18T06:57:57;104.23;;;78.10;;
72601;SDS011;60644;55.858;37.390;2022-08-18T07:00:24;106.53;;;79.32;;
72601;SDS011;60644;55.858;37.390;2022-08-18T07:03:00;105.70;;;78.18;;
72601;SDS011;60644;55.858;37.390;2022-08-18T07:05:30;100.20;;;72.63;;
72601;SDS011;60644;55.858;37.390;2022-08-18T07:08:04;104.00;;;74.00;;
72601;SDS011;60644;55.858;37.390;2022-08-18T07:10:32;91.07;;;62.60;;
72601;SDS011;60644;55.858;37.390;2022-08-18T07:13:36;84.07;;;61.33;;
72601;SDS011;60644;55.858;37.390;2022-08-18T07:15:51;83.78;;;58.83;;
72601;SDS011;60644;55.858;37.390;2022-08-18T07:18:21;84.68;;;61.10;;
72601;SDS011;60644;55.858;37.390;2022-08-18T07:20:57;80.03;;;57.20;;
72601;SDS011;60644;55.858;37.390;2022-08-18T07:23:36;73.53;;;54.47;;
72601;SDS011;60644;55.858;37.390;2022-08-18T07:26:05;68.60;;;49.47;;
72601;SDS011;60644;55.858;37.390;2022-08-18T07:28:32;66.72;;;47.75;;
72601;SDS011;60644;55.858;37.390;2022-08-18T07:33:49;67.10;;;43.63;;
72601;SDS011;60644;55.858;37.390;2022-08-18T07:36:16;53.70;;;39.67;;
72601;SDS011;60644;55.858;37.390;2022-08-18T07:38:53;49.38;;;33.80;;
72601;SDS011;60644;55.858;37.390;2022-08-18T07:44:23;40.45;;;29.60;;
72601;SDS011;60644;55.858;37.390;2022-08-18T07:46:55;39.45;;;28.67;;
72601;SDS011;60644;55.858;37.390;2022-08-18T07:49:25;35.97;;;26.20;;
72601;SDS011;60644;55.858;37.390;2022-08-18T07:52:27;35.15;;;24.95;;
72601;SDS011;60644;55.858;37.390;2022-08-18T08:08:10;27.40;;;18.52;;
72601;SDS011;60644;55.858;37.390;2022-08-18T08:18:23;25.73;;;17.58;;
72601;SDS011;60644;55.858;37.390;2022-08-18T08:20:57;20.00;;;13.80;;
72601;SDS011;60644;55.858;37.390;2022-08-18T08:23:33;22.88;;;14.43;;
